地図

経路データ

SID SEASON NUMBER BASIN SUBBASIN NAME ISO_TIME NATURE LAT LON WMO_WIND WMO_PRES WMO_AGENCY TRACK_TYPE DIST2LAND LANDFALL IFLAG USA_AGENCY USA_ATCF_ID USA_LAT USA_LON USA_RECORD USA_STATUS USA_WIND USA_PRES USA_SSHS USA_R34_NE USA_R34_SE USA_R34_SW USA_R34_NW USA_R50_NE USA_R50_SE USA_R50_SW USA_R50_NW USA_R64_NE USA_R64_SE USA_R64_SW USA_R64_NW USA_POCI USA_ROCI USA_RMW USA_EYE TOKYO_LAT TOKYO_LON TOKYO_GRADE TOKYO_WIND TOKYO_PRES TOKYO_R50_DIR TOKYO_R50_LONG TOKYO_R50_SHORT TOKYO_R30_DIR TOKYO_R30_LONG TOKYO_R30_SHORT TOKYO_LAND CMA_LAT CMA_LON CMA_CAT CMA_WIND CMA_PRES HKO_LAT HKO_LON HKO_CAT HKO_WIND HKO_PRES NEWDELHI_LAT NEWDELHI_LON NEWDELHI_GRADE NEWDELHI_WIND NEWDELHI_PRES NEWDELHI_CI NEWDELHI_DP NEWDELHI_POCI REUNION_LAT REUNION_LON REUNION_TYPE REUNION_WIND REUNION_PRES REUNION_TNUM REUNION_CI REUNION_RMW REUNION_R34_NE REUNION_R34_SE REUNION_R34_SW REUNION_R34_NW REUNION_R50_NE REUNION_R50_SE REUNION_R50_SW REUNION_R50_NW REUNION_R64_NE REUNION_R64_SE REUNION_R64_SW REUNION_R64_NW BOM_LAT BOM_LON BOM_TYPE BOM_WIND BOM_PRES BOM_TNUM BOM_CI BOM_RMW BOM_R34_NE BOM_R34_SE BOM_R34_SW BOM_R34_NW BOM_R50_NE BOM_R50_SE BOM_R50_SW BOM_R50_NW BOM_R64_NE BOM_R64_SE BOM_R64_SW BOM_R64_NW BOM_ROCI BOM_POCI BOM_EYE BOM_POS_METHOD BOM_PRES_METHOD NADI_LAT NADI_LON NADI_CAT NADI_WIND NADI_PRES WELLINGTON_LAT WELLINGTON_LON WELLINGTON_WIND WELLINGTON_PRES DS824_LAT DS824_LON DS824_STAGE DS824_WIND DS824_PRES TD9636_LAT TD9636_LON TD9636_STAGE TD9636_WIND TD9636_PRES TD9635_LAT TD9635_LON TD9635_WIND TD9635_PRES TD9635_ROCI NEUMANN_LAT NEUMANN_LON NEUMANN_CLASS NEUMANN_WIND NEUMANN_PRES MLC_LAT MLC_LON MLC_CLASS MLC_WIND MLC_PRES USA_GUST BOM_GUST BOM_GUST_PER REUNION_GUST REUNION_GUST_PER USA_SEAHGT USA_SEARAD_NE USA_SEARAD_SE USA_SEARAD_SW USA_SEARAD_NW STORM_SPEED STORM_DIR
1914133N13091 1914 10 NI BB NOT_NAMED 1914-05-13 00:00:00 TS 13.1000 91.4000 main 442 442 _________O____ -1 13.1000 91.4000 TC 64 9 300
1914133N13091 1914 10 NI BB NOT_NAMED 1914-05-13 03:00:00 TS 13.3235 90.9952 main 458 458 _________PO___ -1 13.4353 90.7927 TC 64 13.1000 91.4000 4 11 302
1914133N13091 1914 10 NI BB NOT_NAMED 1914-05-13 06:00:00 TS 13.6723 90.4467 main 482 482 _________OP___ -1 13.8000 90.2000 TC 64 13.4807 90.8168 4 13 304
1914133N13091 1914 10 NI BB NOT_NAMED 1914-05-13 09:00:00 TS 14.0579 89.8926 main 508 508 _________PP___ -1 14.2074 89.6350 TC 64 13.8585 90.2361 4 13 306
1914133N13091 1914 10 NI BB NOT_NAMED 1914-05-13 12:00:00 TS 14.4161 89.3812 main 545 545 _________OP___ -1 14.6000 89.1000 TC 64 14.2321 89.6624 4 12 304
1914133N13091 1914 10 NI BB NOT_NAMED 1914-05-13 15:00:00 TS 14.7537 88.8424 main 594 578 _________PO___ -1 14.9074 88.5847 TC 64 14.6000 89.1000 4 12 303
1914133N13091 1914 10 NI BB NOT_NAMED 1914-05-13 18:00:00 TS 15.0798 88.3278 main 570 516 _________OP___ -1 15.2000 88.1000 TC 64 14.9595 88.5556 4 12 305
1914133N13091 1914 10 NI BB NOT_NAMED 1914-05-13 21:00:00 TS 15.4337 87.8289 main 508 454 _________PP___ -1 15.5650 87.6126 TC 64 15.3024 88.0451 4 11 307
1914133N13091 1914 10 NI BB NOT_NAMED 1914-05-14 00:00:00 TS 15.7595 87.3935 main 446 408 _________OP___ -1 15.9000 87.2000 TC 64 15.6191 87.5870 4 9 308
1914133N13091 1914 10 NI BB NOT_NAMED 1914-05-14 03:00:00 TS 16.0112 87.0561 main 408 369 _________PO___ -1 16.1224 86.9123 TC 64 15.9000 87.2000 4 7 309
1914133N13091 1914 10 NI BB NOT_NAMED 1914-05-14 06:00:00 TS 16.2156 86.8011 main 369 338 _________OP___ -1 16.3000 86.7000 TC 64 16.1312 86.9023 4 6 312
1914133N13091 1914 10 NI BB NOT_NAMED 1914-05-14 09:00:00 TS 16.4146 86.5869 main 338 307 _________PP___ -1 16.4999 86.4999 TC 64 16.3292 86.6740 4 6 315
1914133N13091 1914 10 NI BB NOT_NAMED 1914-05-14 12:00:00 TS 16.6063 86.3918 main 307 276 _________OP___ -1 16.7000 86.3000 TC 64 16.5126 86.4837 4 6 314
1914133N13091 1914 10 NI BB NOT_NAMED 1914-05-14 15:00:00 TS 16.7963 86.1750 main 276 238 _________PO___ -1 16.8925 86.0500 TC 64 16.7000 86.3000 4 6 312
1914133N13091 1914 10 NI BB NOT_NAMED 1914-05-14 18:00:00 TS 17.0069 85.9294 main 238 207 _________OP___ -1 17.1000 85.8000 TC 64 16.9138 86.0588 4 6 314
1914133N13091 1914 10 NI BB NOT_NAMED 1914-05-14 21:00:00 TS 17.2388 85.7025 main 207 169 _________PP___ -1 17.3425 85.5850 TC 64 17.1351 85.8200 4 6 319
1914133N13091 1914 10 NI BB NOT_NAMED 1914-05-15 00:00:00 TS 17.4819 85.4981 main 169 138 _________OP___ -1 17.6000 85.4000 TC 64 17.3638 85.5963 4 6 323
1914133N13091 1914 10 NI BB NOT_NAMED 1914-05-15 03:00:00 TS 17.7250 85.3175 main 138 107 _________PO___ -1 17.8500 85.2350 TC 64 17.6000 85.4000 4 6 327
1914133N13091 1914 10 NI BB NOT_NAMED 1914-05-15 06:00:00 TS 17.9693 85.1670 main 107 76 _________OP___ -1 18.1000 85.1000 TC 64 17.8386 85.2339 4 6 332
1914133N13091 1914 10 NI BB NOT_NAMED 1914-05-15 09:00:00 TS 18.2174 85.0412 main 76 46 _________PP___ -1 18.3500 84.9850 TC 64 18.0849 85.0974 4 5 337
1914133N13091 1914 10 NI BB NOT_NAMED 1914-05-15 12:00:00 TS 18.4693 84.9436 main 46 33 _________OP___ -1 18.6000 84.9000 TC 64 18.3387 84.9871 4 5 342
1914133N13091 1914 10 NI BB NOT_NAMED 1914-05-15 15:00:00 TS 18.7212 84.8712 main 33 15 _________PO___ -1 18.8425 84.8424 TC 55 18.6000 84.9000 4 5 343
1914133N13091 1914 10 NI BB NOT_NAMED 1914-05-15 18:00:00 TS 18.9595 84.7882 main 10 0 _________OP___ -1 19.1000 84.8000 TC 47 18.8190 84.7764 4 5 341
1914133N13091 1914 10 NI BB NOT_NAMED 1914-05-15 21:00:00 TS 19.1999 84.7008 main 0 0 _________PP___ -1 19.3475 84.7202 TC 38 19.0523 84.6814 4 6 348
1914133N13091 1914 10 NI BB NOT_NAMED 1914-05-16 00:00:00 TS 19.5172 84.6728 main 0 0 _________OP___ -1 19.7000 84.7000 TC 30 19.3345 84.6457 4 8 3
1914133N13091 1914 10 NI BB NOT_NAMED 1914-05-16 03:00:00 TS 19.9812 84.7413 main 0 0 _________PO___ -1 20.2624 84.7827 TC 30 19.7000 84.7000 1 11 12
1914133N13091 1914 10 NI BB NOT_NAMED 1914-05-16 06:00:00 TS 20.5563 84.9144 main 0 0 _________OP___ -1 20.9000 85.0000 TC 30 20.2126 84.8287 1 12 20
1914133N13091 1914 10 NI BB NOT_NAMED 1914-05-16 09:00:00 TS 21.1345 85.1976 main 0 0 _________PP___ -1 21.4649 85.3401 TC 30 20.8041 85.0552 1 13 29
1914133N13091 1914 10 NI BB NOT_NAMED 1914-05-16 12:00:00 TS 21.7093 85.5895 main 0 0 _________OP___ -1 22.0000 85.8000 TC 30 21.4186 85.3791 1 14 35
1914133N13091 1914 10 NI BB NOT_NAMED 1914-05-16 15:00:00 TS 22.2649 86.0563 main 0 0 _________PO___ -1 22.5298 86.3126 TC 30 22.0000 85.8000 1 14 42
1914133N13091 1914 10 NI BB NOT_NAMED 1914-05-16 18:00:00 TS 22.7173 86.5648 main 0 0 _________OP___ -1 23.0000 86.9000 TC 30 22.5053 86.3134 1 13 50
1914133N13091 1914 10 NI BB NOT_NAMED 1914-05-16 21:00:00 TS 23.1169 87.1548 main 0 0 _________PP___ -1 23.3781 87.5370 TC 30 22.9427 86.9000 1 13 56
1914133N13091 1914 10 NI BB NOT_NAMED 1914-05-17 00:00:00 TS 23.4559 87.7577 main 0 0 _________OP___ -1 23.7000 88.2000 TC 30 23.3338 87.5366 1 11 59
1914133N13091 1914 10 NI BB NOT_NAMED 1914-05-17 03:00:00 NR 23.7000 88.2000 main 0 __________O___ -1 TC 23.7000 88.2000 1 9 59

IBTrACS Databaseについて

本データベースは、米国NOAAが公開する1842年以降の世界の熱帯低気圧のベストトラックデータアーカイブInternational Best Track Archive for Climate Stewardship (IBTrACS)を、ウェブで閲覧しやすい形式に変換したものです。

最終更新日:2021-10-21